createdAt,value
2022-08-22T00:00:54.558Z,4.07
2022-08-22T00:03:03.073Z,4.13
2022-08-22T00:06:00.648Z,5.33
2022-08-22T00:11:22.350Z,3.50
2022-08-22T00:16:57.312Z,4.55
2022-08-22T00:22:07.447Z,4.27
2022-08-22T00:27:27.680Z,3.50
2022-08-22T00:32:42.366Z,3.47
2022-08-22T00:37:53.010Z,3.35
2022-08-22T00:43:08.721Z,5.07
2022-08-22T00:48:39.489Z,5.33
2022-08-22T00:53:54.560Z,4.03
2022-08-22T00:59:25.147Z,6.83
2022-08-22T01:04:33.269Z,7.68
2022-08-22T01:10:10.723Z,5.60
2022-08-22T01:15:21.111Z,4.93
2022-08-22T01:20:48.498Z,5.35
2022-08-22T01:26:08.517Z,6.90
2022-08-22T01:31:50.842Z,6.85
2022-08-22T01:37:12.259Z,8.30
2022-08-22T01:42:21.198Z,5.50
2022-08-22T01:47:54.284Z,8.02
2022-08-22T01:53:06.837Z,4.60
2022-08-22T01:58:22.331Z,6.05
2022-08-22T02:03:35.598Z,6.13
2022-08-22T02:08:59.457Z,4.83
2022-08-22T02:14:19.095Z,5.28
2022-08-22T02:19:31.453Z,4.70
2022-08-22T02:24:34.109Z,5.03
2022-08-22T02:29:36.848Z,5.55
2022-08-22T02:34:46.413Z,5.13
2022-08-22T02:40:10.229Z,4.82
2022-08-22T02:45:30.393Z,4.93
2022-08-22T02:51:20.923Z,4.78
2022-08-22T02:56:27.833Z,5.45
2022-08-22T03:01:30.470Z,4.70
2022-08-22T03:06:43.540Z,4.47
2022-08-22T03:11:52.754Z,4.53
2022-08-22T03:17:01.369Z,4.28
2022-08-22T03:22:11.767Z,4.90
2022-08-22T03:27:32.666Z,5.17
2022-08-22T03:33:13.360Z,4.72
2022-08-22T03:38:23.407Z,5.00
2022-08-22T03:44:04.270Z,6.53
2022-08-22T03:49:06.989Z,5.03
2022-08-22T03:54:18.554Z,9.07
2022-08-22T03:59:42.724Z,6.50
2022-08-22T04:05:01.261Z,9.10
2022-08-22T04:10:41.415Z,6.93
2022-08-22T04:16:19.723Z,10.45
2022-08-22T04:22:01.414Z,12.00
2022-08-22T04:27:11.762Z,9.52
2022-08-22T04:32:45.849Z,12.73
2022-08-22T04:38:19.947Z,11.45
2022-08-22T04:43:42.168Z,13.73
2022-08-22T04:49:09.943Z,11.63
2022-08-22T04:54:30.352Z,11.52
2022-08-22T04:59:35.309Z,13.43
2022-08-22T05:05:13.761Z,13.27
2022-08-22T05:10:34.045Z,12.70
2022-08-22T05:15:40.839Z,17.40
2022-08-22T05:20:48.071Z,21.25
2022-08-22T05:26:00.294Z,11.27
2022-08-22T05:31:26.129Z,13.77
2022-08-22T05:36:37.050Z,17.00
2022-08-22T05:41:41.699Z,16.80
2022-08-22T05:46:57.560Z,41.58
2022-08-22T05:52:16.684Z,17.07
2022-08-22T05:57:38.859Z,19.23
2022-08-22T06:02:53.880Z,27.27
2022-08-22T06:08:05.579Z,25.13
2022-08-22T06:13:17.959Z,28.98
2022-08-22T06:18:27.712Z,21.13
2022-08-22T06:23:46.075Z,19.45
2022-08-22T06:28:54.927Z,19.75
2022-08-22T06:34:11.016Z,23.07
2022-08-22T06:39:19.164Z,23.15
2022-08-22T06:44:36.775Z,20.43
2022-08-22T06:49:42.783Z,21.30
2022-08-22T06:54:49.440Z,22.20
2022-08-22T06:59:54.346Z,17.60
2022-08-22T07:04:57.879Z,19.73
2022-08-22T07:10:01.542Z,25.17
2022-08-22T07:15:41.104Z,19.55
2022-08-22T07:20:49.990Z,19.55
2022-08-22T07:26:15.374Z,24.43
2022-08-22T07:31:44.220Z,19.08
2022-08-22T07:37:16.763Z,18.77
2022-08-22T07:42:28.577Z,18.38
2022-08-22T07:48:01.527Z,23.98
2022-08-22T07:53:40.417Z,22.33
2022-08-22T07:58:46.559Z,28.63
2022-08-22T08:04:00.765Z,34.27
2022-08-22T08:09:04.293Z,40.03
2022-08-22T08:14:09.037Z,33.42
2022-08-22T08:19:19.367Z,39.53
2022-08-22T08:24:27.839Z,39.22
2022-08-22T08:29:37.666Z,36.20
2022-08-22T08:34:44.419Z,32.92
2022-08-22T08:39:53.894Z,29.85
2022-08-22T08:45:28.969Z,35.10
2022-08-22T08:50:50.885Z,28.20
2022-08-22T08:56:31.470Z,35.87
2022-08-22T09:01:43.134Z,31.25
2022-08-22T09:07:01.324Z,30.90
2022-08-22T09:12:33.904Z,34.03
2022-08-22T09:17:42.710Z,29.80
2022-08-22T09:22:51.342Z,34.97
2022-08-22T09:28:02.802Z,29.75
2022-08-22T09:33:15.137Z,30.42
2022-08-22T09:38:39.789Z,28.67
2022-08-22T09:44:13.879Z,28.02
2022-08-22T09:49:22.818Z,23.07
2022-08-22T09:54:33.442Z,25.05
2022-08-22T09:59:57.970Z,22.48
2022-08-22T10:05:10.339Z,25.20
2022-08-22T10:10:30.759Z,18.20
2022-08-22T10:15:38.890Z,14.63
2022-08-22T10:21:01.739Z,21.25
2022-08-22T10:26:22.931Z,15.15
2022-08-22T10:31:59.233Z,15.50
2022-08-22T10:37:24.556Z,14.27
2022-08-22T10:42:46.034Z,14.90
2022-08-22T10:47:54.620Z,13.18
2022-08-22T10:53:29.410Z,15.85
2022-08-22T10:58:39.090Z,15.87
2022-08-22T11:04:15.135Z,16.50
2022-08-22T11:09:40.369Z,17.50
2022-08-22T11:15:11.069Z,14.20
2022-08-22T11:20:42.799Z,15.98
2022-08-22T11:26:30.156Z,17.27
2022-08-22T11:32:00.378Z,16.60
2022-08-22T11:37:14.114Z,18.40
2022-08-22T11:42:29.635Z,18.42
2022-08-22T11:47:40.223Z,18.80
2022-08-22T11:53:32.782Z,23.10
2022-08-22T11:58:47.359Z,23.05
2022-08-22T12:04:03.603Z,21.20
2022-08-22T12:09:21.010Z,21.50
2022-08-22T12:14:54.609Z,20.20
2022-08-22T12:20:23.601Z,21.50
2022-08-22T12:25:53.302Z,21.70
2022-08-22T12:31:05.431Z,19.03
2022-08-22T12:36:25.176Z,22.90
2022-08-22T12:41:46.776Z,24.73
2022-08-22T12:47:06.293Z,21.20
2022-08-22T12:52:25.342Z,21.75
2022-08-22T12:57:46.270Z,25.87
2022-08-22T13:02:55.146Z,20.30
2022-08-22T13:08:05.561Z,21.73
2022-08-22T13:13:12.761Z,20.93
2022-08-22T13:18:30.522Z,20.52
2022-08-22T13:23:43.302Z,25.73
2022-08-22T13:29:09.075Z,23.45
2022-08-22T13:34:43.626Z,23.40
2022-08-22T13:39:50.117Z,22.07
2022-08-22T13:44:58.568Z,21.73
2022-08-22T13:50:17.620Z,18.83
2022-08-22T13:55:35.528Z,22.13
2022-08-22T14:01:01.275Z,18.10
2022-08-22T14:06:37.248Z,21.43
2022-08-22T14:11:49.379Z,18.67
2022-08-22T14:16:54.962Z,19.20
2022-08-22T14:22:14.506Z,24.02
2022-08-22T14:27:33.100Z,21.30
2022-08-22T14:32:52.600Z,19.37
2022-08-22T14:38:30.026Z,17.13
2022-08-22T14:43:40.415Z,21.97
2022-08-22T14:49:13.722Z,19.63
2022-08-22T14:54:21.930Z,18.25
2022-08-22T14:59:37.411Z,18.37
2022-08-22T15:04:45.802Z,19.30
2022-08-22T15:10:03.136Z,17.80
2022-08-22T15:15:49.409Z,19.95
2022-08-22T15:21:13.129Z,18.40
2022-08-22T15:26:26.330Z,18.83
2022-08-22T15:31:31.664Z,20.88
2022-08-22T15:36:35.220Z,23.10
2022-08-22T15:41:45.463Z,19.33
2022-08-22T15:46:59.962Z,21.17
2022-08-22T15:52:03.029Z,22.17
2022-08-22T15:57:17.602Z,22.27
2022-08-22T16:02:41.801Z,22.20
2022-08-22T16:08:06.517Z,30.30
2022-08-22T16:13:14.918Z,20.92
2022-08-22T16:18:44.199Z,22.17
2022-08-22T16:23:58.461Z,25.20
2022-08-22T16:29:07.000Z,25.40
2022-08-22T16:34:18.697Z,27.45
2022-08-22T16:39:21.680Z,31.20
2022-08-22T16:44:30.574Z,32.67
2022-08-22T16:49:39.459Z,29.42
2022-08-22T16:54:49.076Z,28.00
2022-08-22T17:00:12.508Z,31.40
2022-08-22T17:05:37.470Z,36.28
2022-08-22T17:11:00.000Z,34.00
2022-08-22T17:16:20.663Z,30.00
2022-08-22T17:21:37.708Z,38.63
2022-08-22T17:26:54.264Z,36.67
2022-08-22T17:32:17.115Z,39.33
2022-08-22T17:37:42.576Z,38.87
2022-08-22T17:43:33.553Z,40.88
2022-08-22T17:49:09.847Z,35.90
2022-08-22T17:54:20.337Z,46.75
2022-08-22T17:59:34.720Z,41.95
2022-08-22T18:05:28.297Z,37.63
2022-08-22T18:11:00.479Z,42.88
2022-08-22T18:16:14.829Z,41.50
2022-08-22T18:21:59.927Z,42.53
2022-08-22T18:27:08.539Z,37.58
2022-08-22T18:32:38.239Z,45.40
2022-08-22T18:37:53.670Z,40.25
2022-08-22T18:43:24.294Z,36.70
2022-08-22T18:49:05.418Z,38.42
2022-08-22T18:54:10.931Z,41.78
2022-08-22T18:59:23.094Z,34.60
2022-08-22T19:04:53.768Z,32.50
2022-08-22T19:10:23.168Z,32.87
2022-08-22T19:15:44.476Z,26.58
2022-08-22T19:21:33.327Z,21.33
2022-08-22T19:26:58.778Z,21.50
2022-08-22T19:32:05.889Z,22.33
2022-08-22T19:37:33.225Z,18.13
2022-08-22T19:42:39.319Z,21.33
2022-08-22T19:47:43.881Z,17.85
2022-08-22T19:53:02.260Z,14.60
2022-08-22T19:58:32.914Z,17.27
2022-08-22T20:03:45.240Z,10.93
2022-08-22T20:09:25.763Z,13.27
2022-08-22T20:14:35.289Z,14.38
2022-08-22T20:19:40.559Z,15.07
2022-08-22T20:24:49.540Z,14.93
2022-08-22T20:30:02.471Z,14.67
2022-08-22T20:35:06.670Z,15.38
2022-08-22T20:40:57.083Z,11.80
2022-08-22T20:46:22.149Z,10.27
2022-08-22T20:51:30.110Z,11.85
2022-08-22T20:56:52.867Z,13.47
2022-08-22T21:02:15.300Z,11.07
2022-08-22T21:07:39.180Z,10.05
2022-08-22T21:12:42.029Z,10.83
2022-08-22T21:17:44.900Z,12.50
2022-08-22T21:22:48.681Z,13.57
2022-08-22T21:27:53.659Z,10.52
2022-08-22T21:32:57.909Z,11.43
2022-08-22T21:38:02.408Z,10.47
2022-08-22T21:43:27.194Z,9.45
2022-08-22T21:48:38.008Z,12.83
2022-08-22T21:53:41.030Z,10.30
2022-08-22T21:58:43.958Z,12.93
2022-08-22T22:03:46.908Z,10.07
2022-08-22T22:08:50.408Z,10.23
2022-08-22T22:13:54.028Z,13.23
2022-08-22T22:18:57.485Z,11.10
2022-08-22T22:24:00.246Z,12.25
2022-08-22T22:29:03.857Z,8.47
2022-08-22T22:34:06.590Z,10.88
2022-08-22T22:39:10.277Z,8.43
2022-08-22T22:44:13.189Z,11.60
2022-08-22T22:49:16.034Z,12.95
2022-08-22T22:54:18.874Z,10.90
2022-08-22T22:59:30.331Z,10.85
2022-08-22T23:04:38.357Z,12.20
2022-08-22T23:09:44.478Z,13.32
2022-08-22T23:14:48.013Z,13.52
2022-08-22T23:19:51.519Z,13.13
2022-08-22T23:24:54.317Z,15.63
2022-08-22T23:29:57.147Z,11.33
2022-08-22T23:34:59.968Z,14.07
2022-08-22T23:40:03.500Z,9.50
2022-08-22T23:45:06.747Z,10.33
2022-08-22T23:50:09.761Z,8.68
2022-08-22T23:55:12.762Z,13.07
